Time;durP1;ratioP1;P1;durP2;ratioP2;P2;SDS_P1;SDS_P2;PMS_P1;PMS_P2;Temp;Humidity;BMP_temperature;BMP_pressure;BME280_temperature;BME280_humidity;BME280_pressure;Samples;Min_cycle;Max_cycle;Signal;HPM_P1;HPM_P2
2023/03/20 00:00:47;;;;;;;19.05;14.15;;;;;;;15.66;46.05;101935.19;143727;610;46010;-71
2023/03/20 00:03:13;;;;;;;20.08;15.32;;;;;;;15.63;46.22;101924.75;143728;576;46004;-71
2023/03/20 00:05:40;;;;;;;19.52;15.07;;;;;;;15.60;46.73;101931.41;143729;580;46006;-71
2023/03/20 00:08:07;;;;;;;22.25;15.90;;;;;;;15.54;46.88;101930.34;143725;566;47002;-71
2023/03/20 00:10:40;;;;;;;17.27;14.02;;;;;;;15.51;46.47;101936.19;143728;615;46008;-71
2023/03/20 00:13:13;;;;;;;18.77;13.98;;;;;;;15.47;46.57;101918.66;143725;573;47005;-71
2023/03/20 00:15:42;;;;;;;21.80;13.32;;;;;;;15.44;46.54;101925.28;143728;572;46925;-71
2023/03/20 00:18:22;;;;;;;19.60;15.13;;;;;;;15.40;47.24;101915.94;143731;573;47004;-71
2023/03/20 00:20:50;;;;;;;22.05;16.00;;;;;;;15.36;47.43;101924.63;143726;589;46011;-71
2023/03/20 00:23:17;;;;;;;18.92;14.98;;;;;;;15.31;47.27;101909.00;143726;623;47004;-71
2023/03/20 00:25:45;;;;;;;21.48;17.23;;;;;;;15.26;47.45;101906.91;143728;583;46925;-71
2023/03/20 00:28:40;;;;;;;23.73;16.95;;;;;;;15.23;48.08;101923.53;143730;632;47004;-71
2023/03/20 00:31:24;;;;;;;27.85;19.67;;;;;;;15.21;47.61;101916.66;143727;615;46010;-71
2023/03/20 00:33:52;;;;;;;38.33;26.87;;;;;;;15.15;48.17;101908.28;143729;569;46004;-71
2023/03/20 00:36:18;;;;;;;29.65;22.70;;;;;;;15.11;47.63;101909.72;143725;592;47006;-71
2023/03/20 00:38:45;;;;;;;22.95;19.52;;;;;;;15.09;47.86;101911.78;143727;616;47000;-71
2023/03/20 00:41:28;;;;;;;25.52;19.83;;;;;;;15.03;48.16;101901.78;143727;569;46010;-71
2023/03/20 00:44:28;;;;;;;21.85;19.45;;;;;;;15.00;47.87;101907.59;143726;579;47004;-72
2023/03/20 00:47:00;;;;;;;27.52;20.20;;;;;;;14.98;48.03;101893.41;143726;622;46925;-71
2023/03/20 00:49:31;;;;;;;22.95;18.02;;;;;;;14.98;48.29;101893.41;143729;575;47004;-72
2023/03/20 00:51:58;;;;;;;23.10;17.02;;;;;;;14.97;47.92;101894.44;143727;578;46008;-71
2023/03/20 00:54:25;;;;;;;23.33;17.10;;;;;;;14.95;48.53;101888.41;143727;601;46008;-71
2023/03/20 00:57:03;;;;;;;22.35;17.00;;;;;;;14.93;48.46;101887.75;143728;615;46006;-70
2023/03/20 00:59:37;;;;;;;24.25;17.58;;;;;;;14.90;48.32;101893.59;143728;624;47000;-71
2023/03/20 01:02:03;;;;;;;20.62;14.43;;;;;;;14.87;48.28;101888.56;143728;590;47921;-71
2023/03/20 01:04:41;;;;;;;19.80;15.43;;;;;;;14.88;48.15;101890.25;143725;631;47002;-70
2023/03/20 01:07:12;;;;;;;24.55;17.30;;;;;;;14.84;48.36;101885.22;143728;588;46000;-70
2023/03/20 01:09:39;;;;;;;24.17;16.95;;;;;;;14.81;48.77;101876.69;143726;630;47006;-71
2023/03/20 01:12:06;;;;;;;23.10;16.05;;;;;;;14.79;49.12;101878.75;143728;569;46011;-71
2023/03/20 01:14:33;;;;;;;22.52;16.75;;;;;;;14.76;48.43;101879.97;143724;624;47006;-71
2023/03/20 01:17:00;;;;;;;21.52;15.43;;;;;;;14.73;48.62;101869.56;143728;629;46008;-71
2023/03/20 01:19:26;;;;;;;21.33;15.77;;;;;;;14.70;48.56;101869.97;143729;581;47006;-71
2023/03/20 01:21:52;;;;;;;19.92;15.13;;;;;;;14.68;48.50;101862.03;143727;581;46012;-71
2023/03/20 01:24:19;;;;;;;18.73;14.73;;;;;;;14.68;49.09;101870.13;143728;611;46010;-71
2023/03/20 01:26:45;;;;;;;17.50;13.10;;;;;;;14.69;47.77;101874.50;143726;576;46009;-71
2023/03/20 01:29:23;;;;;;;19.90;15.40;;;;;;;14.70;48.25;101873.47;143728;646;46006;-71
2023/03/20 01:31:51;;;;;;;15.77;12.70;;;;;;;14.70;47.57;101872.66;143724;607;46012;-70
2023/03/20 01:34:18;;;;;;;18.83;14.45;;;;;;;14.74;48.37;101881.19;143727;584;46017;-71
2023/03/20 01:36:56;;;;;;;19.10;13.80;;;;;;;14.72;48.19;101877.84;143728;596;46008;-71
2023/03/20 01:39:31;;;;;;;18.08;13.73;;;;;;;14.67;48.27;101871.13;143724;586;47002;-71
2023/03/20 01:41:58;;;;;;;17.35;14.05;;;;;;;14.65;48.04;101875.09;143723;573;46012;-71
2023/03/20 01:44:29;;;;;;;21.05;14.52;;;;;;;14.64;48.01;101882.38;143723;592;48931;-71
2023/03/20 01:46:56;;;;;;;20.58;14.10;;;;;;;14.63;48.54;101883.41;143726;580;46008;-71
2023/03/20 01:50:23;;;;;;;18.60;14.60;;;;;;;14.64;48.13;101876.97;143725;580;47004;-71
2023/03/20 01:53:04;;;;;;;15.57;11.48;;;;;;;14.66;47.46;101876.75;143722;623;47012;-71
2023/03/20 01:55:31;;;;;;;15.30;11.70;;;;;;;14.65;47.42;101875.09;143722;656;47007;-71
2023/03/20 01:58:02;;;;;;;18.25;13.00;;;;;;;14.64;47.72;101868.84;143725;600;46924;-71
2023/03/20 02:00:28;;;;;;;17.52;13.05;;;;;;;14.65;47.67;101869.66;143727;576;46008;-72
2023/03/20 02:02:55;;;;;;;17.35;12.65;;;;;;;14.62;47.87;101868.22;143725;570;46923;-71
2023/03/20 02:05:23;;;;;;;18.62;13.93;;;;;;;14.61;48.01;101865.69;143725;574;47004;-68
2023/03/20 02:07:57;;;;;;;18.45;14.18;;;;;;;14.58;47.98;101864.22;143728;572;46008;-71
2023/03/20 02:10:24;;;;;;;17.27;13.90;;;;;;;14.55;48.05;101868.16;143722;622;47005;-71
2023/03/20 02:12:51;;;;;;;15.05;12.00;;;;;;;14.56;47.67;101872.50;143723;581;47013;-71
2023/03/20 02:15:18;;;;;;;16.67;12.90;;;;;;;14.56;48.02;101859.00;143725;573;46006;-71
2023/03/20 02:17:44;;;;;;;16.55;12.75;;;;;;;14.55;47.69;101872.72;143726;599;46008;-71
2023/03/20 02:20:46;;;;;;;15.80;11.60;;;;;;;14.53;48.15;101872.94;143726;572;47007;-71
2023/03/20 02:23:56;;;;;;;19.52;13.62;;;;;;;14.54;48.50;101871.03;143729;604;46004;-71
2023/03/20 02:26:46;;;;;;;21.80;16.77;;;;;;;14.50;47.97;101869.75;143723;573;47004;-71
2023/03/20 02:29:58;;;;;;;18.55;15.02;;;;;;;14.46;48.36;101863.09;143727;627;46006;-71
2023/03/20 02:33:06;;;;;;;18.83;15.60;;;;;;;14.43;48.71;101856.19;143724;567;47002;-71
2023/03/20 02:36:22;;;;;;;17.25;14.87;;;;;;;14.43;48.80;101855.38;143725;569;46008;-71
2023/03/20 02:39:27;;;;;;;18.08;15.27;;;;;;;14.39;48.64;101852.22;143726;619;46004;-71
2023/03/20 02:42:11;;;;;;;16.62;13.27;;;;;;;14.37;48.71;101857.00;143725;597;46004;-71
2023/03/20 02:45:19;;;;;;;19.07;14.27;;;;;;;14.38;48.69;101850.56;143725;619;47002;-71
2023/03/20 02:48:23;;;;;;;16.77;13.90;;;;;;;14.32;48.23;101854.03;143724;651;47010;-71
2023/03/20 02:51:15;;;;;;;22.15;15.35;;;;;;;14.32;48.23;101843.22;143726;580;47004;-71
2023/03/20 02:54:16;;;;;;;18.42;13.13;;;;;;;14.32;48.21;101851.34;143725;598;46006;-71
2023/03/20 02:57:10;;;;;;;17.58;12.50;;;;;;;14.27;48.40;101857.34;143727;614;46005;-71
2023/03/20 02:59:59;;;;;;;17.63;14.47;;;;;;;14.24;48.70;101855.03;143725;602;46019;-70
2023/03/20 03:02:47;;;;;;;20.20;13.70;;;;;;;14.23;48.65;101853.34;143724;591;47005;-71
2023/03/20 03:05:19;;;;;;;18.85;14.15;;;;;;;14.23;48.65;101850.66;143726;574;46006;-71
2023/03/20 03:07:49;;;;;;;21.52;12.77;;;;;;;14.21;48.29;101844.59;143725;578;47002;-71
2023/03/20 03:10:39;;;;;;;17.80;12.43;;;;;;;14.19;48.54;101852.91;143719;568;49005;-71
2023/03/20 03:13:10;;;;;;;16.60;12.00;;;;;;;14.18;48.51;101847.69;143723;626;47004;-72
2023/03/20 03:15:46;;;;;;;16.98;11.02;;;;;;;14.18;48.89;101861.19;143724;569;46006;-71
2023/03/20 03:18:20;;;;;;;13.60;10.20;;;;;;;14.17;48.70;101865.78;143725;582;46006;-71
2023/03/20 03:20:49;;;;;;;19.53;12.77;;;;;;;14.17;48.96;101862.22;143722;630;47004;-71
2023/03/20 03:23:36;;;;;;;15.90;11.70;;;;;;;14.15;49.16;101858.88;143725;585;46004;-71
2023/03/20 03:26:04;;;;;;;19.83;12.35;;;;;;;14.14;48.73;101859.91;143725;715;46006;-71
2023/03/20 03:29:00;;;;;;;18.27;12.55;;;;;;;14.12;48.95;101859.28;143727;577;47004;-71
2023/03/20 03:31:28;;;;;;;17.92;12.68;;;;;;;14.09;48.81;101858.66;143725;566;47008;-71
2023/03/20 03:33:57;;;;;;;15.60;11.15;;;;;;;14.09;48.38;101871.31;143722;605;47004;-71
2023/03/20 03:36:47;;;;;;;17.55;11.50;;;;;;;14.08;48.68;101856.97;143723;572;46010;-71
2023/03/20 03:39:55;;;;;;;13.60;9.57;;;;;;;14.08;48.26;101853.41;143725;577;47000;-71
2023/03/20 03:43:06;;;;;;;12.43;9.18;;;;;;;14.06;48.08;101847.37;143722;650;47011;-71
2023/03/20 03:45:42;;;;;;;13.25;8.20;;;;;;;14.04;48.47;101844.88;143722;569;47004;-71
2023/03/20 03:48:17;;;;;;;11.20;8.82;;;;;;;14.06;48.20;101840.13;143726;615;46007;-71
2023/03/20 03:50:59;;;;;;;14.25;10.73;;;;;;;14.03;48.17;101837.78;143724;590;49000;-71
2023/03/20 03:53:35;;;;;;;15.05;11.15;;;;;;;14.03;48.88;101845.06;143726;578;46008;-71
2023/03/20 03:56:05;;;;;;;14.32;10.50;;;;;;;14.03;48.42;101840.50;143726;569;46004;-71
2023/03/20 03:58:48;;;;;;;15.20;11.63;;;;;;;14.02;48.71;101841.53;143725;618;46006;-71
2023/03/20 04:01:16;;;;;;;15.00;11.48;;;;;;;14.02;48.70;101846.94;143725;586;47000;-71
2023/03/20 04:03:50;;;;;;;16.90;11.80;;;;;;;14.00;48.97;101842.75;143725;592;46011;-71
2023/03/20 04:06:17;;;;;;;16.65;11.40;;;;;;;13.99;48.75;101835.69;143724;607;47004;-71
2023/03/20 04:08:43;;;;;;;16.90;11.35;;;;;;;13.96;48.54;101836.87;143726;582;46006;-71
2023/03/20 04:11:18;;;;;;;15.68;11.35;;;;;;;13.94;48.82;101830.88;143725;573;47005;-71
2023/03/20 04:13:46;;;;;;;;;;;;;;;13.93;48.24;101827.31;143730;985;47010;-71
2023/03/20 04:16:13;;;;;;;20.98;12.45;;;;;;;13.91;48.34;101826.66;143735;655;46014;-71
2023/03/20 04:18:40;;;;;;;20.48;11.48;;;;;;;13.93;49.03;101831.91;143726;579;46925;-71
2023/03/20 04:21:07;;;;;;;15.30;11.48;;;;;;;13.92;48.57;101839.16;143725;584;47006;-71
2023/03/20 04:23:33;;;;;;;17.12;10.95;;;;;;;13.92;48.95;101825.66;143728;570;46008;-71
2023/03/20 04:26:00;;;;;;;16.95;10.80;;;;;;;13.93;48.43;101824.62;143722;663;47002;-71
2023/03/20 04:28:27;;;;;;;20.05;11.07;;;;;;;13.94;49.11;101831.69;143725;639;46006;-72
2023/03/20 04:30:55;;;;;;;18.15;11.88;;;;;;;13.94;49.17;101823.59;143726;605;47002;-71
2023/03/20 04:33:21;;;;;;;16.90;11.80;;;;;;;13.92;48.38;101828.34;143725;567;47004;-70
2023/03/20 04:35:47;;;;;;;15.05;11.73;;;;;;;13.91;48.67;101828.56;143724;575;46015;-71
2023/03/20 04:38:14;;;;;;;19.02;11.60;;;;;;;13.90;48.72;101827.69;143726;596;46925;-71
2023/03/20 04:40:41;;;;;;;13.52;9.52;;;;;;;13.89;48.30;101833.31;143727;584;47004;-71
2023/03/20 04:43:07;;;;;;;12.35;9.95;;;;;;;13.86;48.39;101839.91;143728;654;46004;-71
2023/03/20 04:45:33;;;;;;;17.37;12.30;;;;;;;13.85;48.57;101850.91;143721;567;47004;-71
2023/03/20 04:48:00;;;;;;;15.50;9.55;;;;;;;13.83;48.51;101848.41;143724;567;46007;-71
2023/03/20 04:50:27;;;;;;;15.75;10.00;;;;;;;13.81;49.04;101853.19;143717;664;47997;-72
2023/03/20 04:52:53;;;;;;;17.33;11.90;;;;;;;13.81;48.90;101861.28;143725;590;46008;-71
2023/03/20 04:55:21;;;;;;;21.80;13.48;;;;;;;13.82;48.58;101859.41;143722;636;47004;-72
2023/03/20 04:57:47;;;;;;;23.60;11.52;;;;;;;13.82;48.83;101856.69;143727;597;46006;-71
2023/03/20 05:00:15;;;;;;;17.95;10.10;;;;;;;13.78;48.95;101859.78;143725;584;47002;-71
2023/03/20 05:02:41;;;;;;;18.62;11.63;;;;;;;13.75;49.48;101860.19;143726;602;46010;-71
2023/03/20 05:05:08;;;;;;;19.73;12.70;;;;;;;13.74;49.34;101866.59;143720;633;47004;-71
2023/03/20 05:07:35;;;;;;;24.98;14.65;;;;;;;13.72;49.19;101862.41;143724;576;46006;-71
2023/03/20 05:10:02;;;;;;;21.10;14.73;;;;;;;13.74;49.51;101873.84;143726;582;47000;-71
2023/03/20 05:12:28;;;;;;;28.48;15.02;;;;;;;13.75;49.45;101870.13;143725;578;46010;-71
2023/03/20 05:14:55;;;;;;;22.02;14.18;;;;;;;13.75;49.60;101879.09;143723;580;47002;-71
2023/03/20 05:17:22;;;;;;;24.85;13.85;;;;;;;13.79;49.78;101874.94;143727;662;46007;-71
2023/03/20 05:19:52;;;;;;;17.35;12.30;;;;;;;13.82;49.86;101879.16;143726;616;47000;-71
2023/03/20 05:22:18;;;;;;;18.52;12.57;;;;;;;13.82;49.95;101879.16;143726;599;47921;-71
2023/03/20 05:24:45;;;;;;;26.90;17.15;;;;;;;13.87;49.35;101878.56;143723;581;46929;-71
2023/03/20 05:27:11;;;;;;;31.73;20.00;;;;;;;13.87;49.44;101875.88;143725;588;46006;-71
2023/03/20 05:29:37;;;;;;;25.08;19.20;;;;;;;13.89;49.09;101876.50;143727;588;46004;-71
2023/03/20 05:32:05;;;;;;;18.62;15.68;;;;;;;13.92;49.21;101871.56;143726;575;46009;-71
2023/03/20 05:34:31;;;;;;;23.38;14.57;;;;;;;13.97;49.44;101876.38;143724;594;46004;-71
2023/03/20 05:36:57;;;;;;;18.98;13.07;;;;;;;14.00;49.27;101881.41;143726;577;46925;-70
2023/03/20 05:39:24;;;;;;;26.35;14.70;;;;;;;14.04;49.13;101884.53;143725;573;47002;-72
2023/03/20 05:41:50;;;;;;;18.83;13.52;;;;;;;14.07;49.04;101882.31;143726;569;46010;-71
2023/03/20 05:44:17;;;;;;;14.18;12.68;;;;;;;14.10;48.46;101881.06;143729;586;46002;-71
2023/03/20 05:46:43;;;;;;;18.65;13.73;;;;;;;14.15;48.29;101885.91;143724;591;46006;-72
2023/03/20 05:49:09;;;;;;;20.12;13.52;;;;;;;14.18;48.74;101882.81;143725;588;47002;-71
2023/03/20 05:51:36;;;;;;;17.27;13.27;;;;;;;14.22;48.34;101882.22;143725;595;46010;-71
2023/03/20 05:54:02;;;;;;;21.62;12.73;;;;;;;14.26;48.13;101882.69;143724;604;47004;-71
2023/03/20 05:56:29;;;;;;;19.42;13.18;;;;;;;14.31;48.90;101888.31;143724;578;46006;-71
2023/03/20 05:58:55;;;;;;;19.23;13.25;;;;;;;14.36;48.99;101890.47;143725;642;47004;-71
2023/03/20 06:01:21;;;;;;;19.95;14.13;;;;;;;14.39;50.00;101890.91;143724;581;46017;-72
2023/03/20 06:03:48;;;;;;;18.00;12.82;;;;;;;14.43;49.72;101885.94;143727;739;46004;-71
2023/03/20 06:06:16;;;;;;;20.40;13.13;;;;;;;14.46;48.57;101896.34;143727;679;46006;-71
2023/03/20 06:08:42;;;;;;;20.12;12.57;;;;;;;14.49;48.65;101889.72;143724;594;47004;-71
2023/03/20 06:11:10;;;;;;;17.15;11.55;;;;;;;14.53;47.85;101891.00;143726;582;46008;-71
2023/03/20 06:13:36;;;;;;;15.13;10.75;;;;;;;14.57;47.11;101886.88;143724;652;47929;-71
2023/03/20 06:16:03;;;;;;;16.77;12.82;;;;;;;14.61;47.39;101887.31;143725;607;46006;-71
2023/03/20 06:18:29;;;;;;;16.60;12.57;;;;;;;14.65;47.49;101877.78;143728;605;47005;-68
2023/03/20 06:20:57;;;;;;;16.73;12.65;;;;;;;14.68;46.68;101886.34;143725;573;46010;-72
2023/03/20 06:23:23;;;;;;;19.30;12.73;;;;;;;14.72;46.90;101880.56;143725;568;46004;-71
2023/03/20 06:25:50;;;;;;;18.23;12.80;;;;;;;14.76;46.00;101879.12;143727;608;46006;-71
2023/03/20 06:28:16;;;;;;;30.10;18.08;;;;;;;14.81;46.78;101880.22;143724;628;47000;-71
2023/03/20 06:30:43;;;;;;;24.20;17.58;;;;;;;14.83;47.22;101883.56;143725;591;46009;-71
2023/03/20 06:33:10;;;;;;;27.85;20.33;;;;;;;14.89;47.35;101878.41;143726;605;46005;-71
2023/03/20 06:35:36;;;;;;;44.58;29.52;;;;;;;14.93;46.89;101872.38;143725;588;46925;-72
2023/03/20 06:38:02;;;;;;;54.75;38.85;;;;;;;15.00;46.39;101880.53;143725;568;47000;-71
2023/03/20 06:40:29;;;;;;;96.32;67.43;;;;;;;15.07;46.95;101875.16;143726;573;46008;-71
2023/03/20 06:42:55;;;;;;;55.85;40.70;;;;;;;15.12;46.81;101881.63;143725;588;47004;-71
2023/03/20 06:45:22;;;;;;;51.67;37.55;;;;;;;15.18;46.81;101882.69;143727;583;46925;-71
2023/03/20 06:47:48;;;;;;;43.60;32.85;;;;;;;15.22;46.55;101873.13;143729;580;46002;-70
2023/03/20 06:50:15;;;;;;;45.85;31.37;;;;;;;15.29;46.49;101878.59;143725;589;46010;-71
2023/03/20 06:52:41;;;;;;;19.05;14.90;;;;;;;15.36;46.11;101878.59;143726;582;46014;-71
2023/03/20 06:55:08;;;;;;;18.45;13.02;;;;;;;15.42;46.29;101884.06;143727;606;46006;-71
2023/03/20 06:57:35;;;;;;;16.70;13.18;;;;;;;15.49;46.79;101878.69;143726;567;47004;-71
2023/03/20 07:00:03;;;;;;;16.83;13.18;;;;;;;15.53;46.54;101874.50;143725;621;46010;-71
2023/03/20 07:02:30;;;;;;;19.75;12.63;;;;;;;15.59;46.56;101879.12;143725;589;47004;-70
2023/03/20 07:04:56;;;;;;;26.05;15.18;;;;;;;15.65;47.43;101871.22;143725;582;46006;-71
2023/03/20 07:07:22;;;;;;;20.33;13.30;;;;;;;15.72;47.13;101870.19;143722;609;47002;-71
2023/03/20 07:09:49;;;;;;;17.05;11.55;;;;;;;15.76;46.77;101866.06;143725;586;46008;-70
2023/03/20 07:12:18;;;;;;;18.25;11.52;;;;;;;15.83;46.93;101876.03;143723;586;47008;-71
2023/03/20 07:14:45;;;;;;;19.58;11.50;;;;;;;15.88;46.50;101868.19;143726;579;46006;-71
2023/03/20 07:17:12;;;;;;;13.60;9.93;;;;;;;15.95;47.08;101868.19;143726;625;46011;-71
2023/03/20 07:19:39;;;;;;;15.40;11.02;;;;;;;16.01;47.23;101870.09;143725;579;46008;-71
2023/03/20 07:22:08;;;;;;;15.75;10.85;;;;;;;16.06;47.40;101859.47;143724;582;46014;-70
2023/03/20 07:24:34;;;;;;;17.62;11.18;;;;;;;16.12;47.55;101869.44;143723;568;46007;-71
2023/03/20 07:27:01;;;;;;;21.50;11.35;;;;;;;16.17;47.89;101869.69;143726;599;46015;-71
2023/03/20 07:29:27;;;;;;;16.20;10.45;;;;;;;16.25;47.18;101873.19;143726;580;47922;-70
2023/03/20 07:31:53;;;;;;;11.75;9.70;;;;;;;16.30;46.72;101868.00;143724;582;47004;-71
2023/03/20 07:34:20;;;;;;;16.48;10.13;;;;;;;16.36;46.76;101859.88;143725;578;47006;-70
2023/03/20 07:36:47;;;;;;;11.35;8.75;;;;;;;16.43;46.59;101878.84;143722;566;47002;-72
2023/03/20 07:39:13;;;;;;;14.82;9.60;;;;;;;16.49;46.05;101869.06;143726;589;46009;-70
2023/03/20 07:41:40;;;;;;;15.27;9.23;;;;;;;16.55;45.88;101864.66;143726;664;47004;-69
2023/03/20 07:44:07;;;;;;;18.75;9.27;;;;;;;16.60;45.13;101873.84;143727;609;46006;-71
2023/03/20 07:46:33;;;;;;;17.55;9.60;;;;;;;16.65;45.45;101863.19;143729;602;46004;-70
2023/03/20 07:48:59;;;;;;;13.40;8.90;;;;;;;16.72;44.41;101873.19;143726;615;46010;-70
2023/03/20 07:51:26;;;;;;;10.98;7.78;;;;;;;16.77;44.49;101871.50;143722;577;47004;-70
2023/03/20 07:53:52;;;;;;;17.00;9.23;;;;;;;16.82;43.87;101868.16;143726;581;46007;-70
2023/03/20 07:56:18;;;;;;;12.50;8.52;;;;;;;16.88;43.90;101874.63;143727;585;46016;-70
2023/03/20 07:58:45;;;;;;;11.95;9.13;;;;;;;16.91;43.87;101877.72;143726;572;46010;-70
2023/03/20 08:01:11;;;;;;;14.38;9.68;;;;;;;16.96;43.86;101867.09;143724;605;47002;-70
2023/03/20 08:03:38;;;;;;;16.17;11.60;;;;;;;17.02;43.87;101865.41;143725;594;48006;-70
2023/03/20 08:06:06;;;;;;;13.43;10.88;;;;;;;17.06;43.88;101865.81;143728;623;46006;-70
2023/03/20 08:08:32;;;;;;;14.15;9.73;;;;;;;17.12;43.82;101867.69;143726;634;47010;-70
2023/03/20 08:10:59;;;;;;;17.35;9.50;;;;;;;17.18;44.18;101869.56;143725;584;47004;-70
2023/03/20 08:13:25;;;;;;;10.52;8.82;;;;;;;17.25;43.95;101866.81;143726;584;46006;-70
2023/03/20 08:15:52;;;;;;;15.48;9.40;;;;;;;17.31;43.49;101863.22;143727;590;47004;-70
2023/03/20 08:18:21;;;;;;;13.73;8.45;;;;;;;17.40;43.25;101869.22;143725;658;46921;-70
2023/03/20 08:20:51;;;;;;;10.27;7.90;;;;;;;17.49;43.26;101881.53;143724;637;47004;-69
2023/03/20 08:23:17;;;;;;;9.65;8.45;;;;;;;17.54;43.53;101870.84;143725;613;46007;-70
2023/03/20 08:25:48;;;;;;;11.65;8.05;;;;;;;17.63;43.16;101878.75;143723;651;47004;-70
2023/03/20 08:28:15;;;;;;;14.60;9.80;;;;;;;17.71;43.06;101871.16;143725;588;46010;-70
2023/03/20 08:30:42;;;;;;;12.63;9.30;;;;;;;17.81;43.22;101861.72;143724;590;47004;-70
2023/03/20 08:33:08;;;;;;;15.43;9.20;;;;;;;17.90;43.81;101859.56;143727;611;46926;-70
2023/03/20 08:35:34;;;;;;;12.50;9.75;;;;;;;18.00;43.27;101858.03;143728;624;46016;-70
2023/03/20 08:38:01;;;;;;;12.10;9.18;;;;;;;18.08;43.09;101854.25;143726;627;46010;-71
2023/03/20 08:40:28;;;;;;;13.45;10.15;;;;;;;18.18;43.25;101848.28;143723;586;47004;-68
2023/03/20 08:42:54;;;;;;;15.77;11.60;;;;;;;18.25;42.77;101845.53;143727;605;46006;-70
2023/03/20 08:45:24;;;;;;;14.98;10.50;;;;;;;18.33;42.50;101837.91;143727;619;47002;-70
2023/03/20 08:47:51;;;;;;;16.17;11.07;;;;;;;18.39;42.66;101836.19;143723;573;46010;-70
2023/03/20 08:50:18;;;;;;;15.18;10.50;;;;;;;18.44;42.24;101833.59;143725;606;47004;-71
2023/03/20 08:52:45;;;;;;;15.70;9.48;;;;;;;18.53;41.75;101833.34;143727;637;46006;-70
2023/03/20 08:55:13;;;;;;;12.55;10.50;;;;;;;18.60;42.36;101824.03;143726;586;47004;-70
2023/03/20 08:57:40;;;;;;;17.48;10.85;;;;;;;18.67;42.29;101832.12;143723;586;47004;-71
2023/03/20 09:00:09;;;;;;;14.23;10.77;;;;;;;18.75;43.77;101841.88;143724;625;47004;-71
2023/03/20 09:02:35;;;;;;;14.95;10.75;;;;;;;18.81;43.13;101846.44;143726;591;46006;-70
2023/03/20 09:05:02;;;;;;;20.10;10.88;;;;;;;18.85;42.71;101849.53;143726;586;47004;-70
2023/03/20 09:07:28;;;;;;;15.50;10.13;;;;;;;18.93;43.10;101850.06;143723;638;46023;-70
2023/03/20 09:09:55;;;;;;;13.35;10.70;;;;;;;18.97;43.54;101845.03;143727;582;46004;-71
2023/03/20 09:12:21;;;;;;;15.57;11.60;;;;;;;18.99;43.06;101847.53;143728;577;46006;-71
2023/03/20 09:14:48;;;;;;;15.23;10.57;;;;;;;19.01;42.71;101846.22;143730;643;46006;-71
2023/03/20 09:17:14;;;;;;;14.27;10.70;;;;;;;19.08;42.75;101854.31;143726;573;46011;-71
2023/03/20 09:19:43;;;;;;;11.93;10.02;;;;;;;19.14;42.63;101855.31;143726;594;47002;-70
2023/03/20 09:22:13;;;;;;;13.65;11.23;;;;;;;19.22;42.84;101846.81;143727;598;46006;-70
2023/03/20 09:24:39;;;;;;;13.85;10.80;;;;;;;19.26;42.83;101845.31;143729;613;46010;-70
2023/03/20 09:27:07;;;;;;;16.67;10.57;;;;;;;19.33;42.46;101851.47;143728;684;46008;-70
2023/03/20 09:29:33;;;;;;;13.40;9.65;;;;;;;19.37;41.83;101844.53;143726;589;47004;-70
2023/03/20 09:32:00;;;;;;;14.40;10.07;;;;;;;19.44;41.68;101841.69;143727;621;46006;-70
2023/03/20 09:34:26;;;;;;;11.68;8.98;;;;;;;19.51;41.14;101831.56;143728;587;47000;-70
2023/03/20 09:36:52;;;;;;;13.82;9.77;;;;;;;19.58;40.95;101827.91;143728;581;46010;-71
2023/03/20 09:39:19;;;;;;;14.35;10.45;;;;;;;19.64;40.67;101826.97;143726;614;47005;-70
2023/03/20 09:41:49;;;;;;;13.32;8.98;;;;;;;19.69;40.32;101819.75;143727;569;46006;-71
2023/03/20 09:44:45;;;;;;;14.63;10.32;;;;;;;19.74;40.47;101813.63;143725;593;47002;-70
2023/03/20 09:47:18;;;;;;;;;;;;;;;19.82;40.61;101809.72;143732;985;46011;-70
2023/03/20 09:50:08;;;;;;;15.10;11.05;;;;;;;19.93;41.08;101802.66;143739;605;46002;-71
2023/03/20 09:52:57;;;;;;;13.98;10.43;;;;;;;20.03;42.10;101802.91;143726;590;47006;-70
2023/03/20 09:55:32;;;;;;;13.93;10.50;;;;;;;20.05;41.24;101792.59;143731;633;46006;-71
2023/03/20 09:58:23;;;;;;;16.10;10.52;;;;;;;20.08;40.82;101778.50;143728;647;47004;-71
2023/03/20 10:00:50;;;;;;;14.02;9.63;;;;;;;20.08;39.64;101777.62;143726;639;47008;-70
2023/03/20 10:03:28;;;;;;;12.05;8.68;;;;;;;20.20;38.84;101777.66;143728;586;46006;-71
2023/03/20 10:06:00;;;;;;;13.18;9.15;;;;;;;20.29;40.15;101766.13;143726;715;47002;-70
2023/03/20 10:08:33;;;;;;;14.32;9.68;;;;;;;20.38;40.03;101763.88;143728;596;46009;-71
2023/03/20 10:11:23;;;;;;;13.85;9.48;;;;;;;20.41;40.56;101766.13;143727;600;46004;-70
2023/03/20 10:14:24;;;;;;;14.90;11.77;;;;;;;20.49;41.88;101769.53;143724;984;47000;-70
2023/03/20 10:17:23;;;;;;;15.43;9.85;;;;;;;20.60;42.13;101768.72;143732;606;46006;-70
2023/03/20 10:19:54;;;;;;;12.45;9.52;;;;;;;20.70;42.17;101771.66;143726;798;46010;-71
2023/03/20 10:22:32;;;;;;;12.27;9.23;;;;;;;20.69;41.35;101769.16;143727;602;47004;-71
2023/03/20 10:25:33;;;;;;;12.57;9.68;;;;;;;20.70;42.18;101771.66;143725;957;47006;-71
2023/03/20 10:28:03;;;;;;;12.23;9.45;;;;;;;20.72;42.00;101764.06;143728;881;47004;-72
2023/03/20 10:31:11;;;;;;;18.85;9.20;;;;;;;20.74;41.98;101764.63;143728;710;46009;-71
2023/03/20 10:34:24;;;;;;;12.13;9.73;;;;;;;20.85;42.32;101760.25;143725;587;47002;-70
2023/03/20 10:37:19;;;;;;;10.90;9.35;;;;;;;20.78;41.34;101747.81;143726;981;46925;-71
2023/03/20 10:40:22;;;;;;;10.90;9.48;;;;;;;20.79;41.26;101744.00;143729;595;47004;-71
2023/03/20 10:42:51;;;;;;;14.93;9.15;;;;;;;20.85;40.79;101740.28;143728;589;46008;-70
2023/03/20 10:45:30;;;;;;;14.43;9.70;;;;;;;20.92;40.51;101735.53;143729;628;46004;-70
2023/03/20 10:48:01;;;;;;;11.95;8.55;;;;;;;20.89;40.16;101728.66;143727;572;46925;-71
2023/03/20 10:50:47;;;;;;;13.18;9.13;;;;;;;20.92;40.15;101723.75;143728;581;46015;-71
2023/03/20 10:53:25;;;;;;;9.48;8.48;;;;;;;20.95;39.80;101723.28;143726;568;47009;-72
2023/03/20 10:55:55;;;;;;;10.73;6.82;;;;;;;20.97;39.85;101721.13;143726;977;47004;-72
2023/03/20 10:58:23;;;;;;;8.93;6.72;;;;;;;21.03;39.62;101717.44;143729;986;46006;-70
2023/03/20 11:00:52;;;;;;;14.18;8.68;;;;;;;21.09;40.11;101726.56;143728;573;47000;-71
2023/03/20 11:03:30;;;;;;;9.38;7.65;;;;;;;21.05;38.33;101705.19;143728;734;46008;-72
2023/03/20 11:06:33;;;;;;;13.70;8.85;;;;;;;21.08;39.48;101708.50;143725;685;47004;-71
2023/03/20 11:09:19;;;;;;;12.57;9.27;;;;;;;21.11;39.82;101697.09;143728;966;46007;-70
2023/03/20 11:11:47;;;;;;;12.90;8.82;;;;;;;21.15;39.79;101693.63;143727;590;47000;-70
2023/03/20 11:14:22;;;;;;;11.02;8.27;;;;;;;21.22;40.23;101684.44;143728;692;46010;-70
2023/03/20 11:16:54;;;;;;;10.80;8.48;;;;;;;21.23;39.97;101686.09;143727;973;47004;-70
2023/03/20 11:19:22;;;;;;;12.52;8.45;;;;;;;21.27;39.37;101688.09;143727;986;46006;-71
2023/03/20 11:21:52;;;;;;;11.95;7.95;;;;;;;21.29;39.02;101669.53;143727;600;47002;-71
2023/03/20 11:24:43;;;;;;;10.20;7.78;;;;;;;21.32;39.36;101676.41;143724;973;48002;-71
2023/03/20 11:27:14;;;;;;;8.82;6.75;;;;;;;21.32;38.95;101665.47;143724;869;47004;-72
2023/03/20 11:29:41;;;;;;;15.88;6.45;;;;;;;21.34;38.99;101666.06;143730;971;46006;-71
2023/03/20 11:32:39;;;;;;;9.27;6.53;;;;;;;21.39;38.38;101651.66;143727;572;47002;-71
2023/03/20 11:35:35;;;;;;;8.43;6.25;;;;;;;21.41;38.68;101639.41;143727;745;46010;-70
2023/03/20 11:38:19;;;;;;;10.38;6.68;;;;;;;21.41;39.14;101644.88;143727;972;46005;-71